Meteo Giornale » Osservazioni meteo Stati Uniti (USA) » Marshfield
ore: 14:54 - Osservazioni Meteo Marshfield
Lat. 44° 38' N Lon. 90° 11' W Alt. 389 metri s.l.m.
32 °C
Sereno
Temp. 24 Ore
17 °C
32 °C
Ovest/Nord-Ovest
14.8 Km/h
Dew point 16 °C
Umidità 38 %
Visibilità 10 Km
Il sole sorge alle ore 06:23
Il sole tramonta alle ore 19:37
| Data e Ora | Cielo e Fenomeni | T °C | DP °C | Um. % | Pres. hPa | Vis. km | Vento km/h | |
|---|---|---|---|---|---|---|---|---|
| Oggi h: 14:54 | Sereno | 32 | 16 | 38 | 1014 | 10 | O/NO 14.8 | |
| Oggi h: 13:54 | Sereno | 31 | 18 | 45 | 1014 | 10 | N 7.4 | |
| Oggi h: 12:54 | Sereno | 29 | 17 | 48 | 1014 | 10 | O 9.3 | |
| Oggi h: 11:54 | Sereno | 29 | 18 | 51 | 1015 | 10 | N 0 | |
| Oggi h: 10:54 | Sereno | 28 | 19 | 58 | 1015 | 10 | NO 7.4 | |
| Oggi h: 09:54 | Poco Nuvoloso | 26 | 21 | 73 | 1015 | 10 | N 5.5 | |
| Oggi h: 08:54 | Sereno | 22 | 21 | 94 | 1015 | 10 | N 0 | |
| Oggi h: 07:54 | Sereno | 20 | 20 | 100 | 1015 | 11 | N 0 | |
| Oggi h: 07:38 | Foschia | 19 | 19 | 100 | 1015 | 5 | N 0 | |
| Oggi h: 07:35 | Foschia | 18 | 18 | 100 | 1015 | 2 | N 0 | |
| Oggi h: 07:26 | Foschia | 18 | 18 | 100 | 1015 | 2 | N 0 | |
| Oggi h: 07:15 | Nebbia | 17 | 17 | 100 | 1015 | 2 | N 0 | |
| Oggi h: 07:11 | Foschia | 17 | 17 | 100 | 1015 | 5 | N 0 | |
| Oggi h: 07:05 | Foschia | 17 | 17 | 100 | 1015 | 2 | N 0 | |
| Oggi h: 07:01 | Nebbia | 17 | 17 | 100 | 1014 | 2 | N 0 | |
| Oggi h: 06:54 | Nebbia | 17 | 17 | 100 | 1014 | 0 | N 0 | |
| Oggi h: 06:46 | Nebbia | 17 | 17 | 100 | 1014 | 0 | N 5.5 | |
| Oggi h: 06:35 | Nebbia | 18 | 18 | 100 | 1014 | 2 | N 0 | |
| Oggi h: 06:27 | Foschia | 18 | 18 | 100 | 1014 | 5 | N 0 | |
| Oggi h: 06:23 | Foschia | 18 | 18 | 100 | 1014 | 3 | N 0 | |
| Oggi h: 06:07 | Foschia | 18 | 18 | 100 | 1014 | 5 | N 5.5 | |
| Oggi h: 06:02 | Foschia | 18 | 18 | 100 | 1014 | 5 | N 0 | |
| Oggi h: 05:54 | Foschia | 17 | 17 | 100 | 1014 | 3 | N 5.5 | |
| Oggi h: 05:47 | Foschia | 17 | 17 | 100 | 1014 | 2 | N/NO 7.4 | |
| Oggi h: 05:35 | Nebbia | 17 | 17 | 100 | 1014 | 2 | N 5.5 | |
| Oggi h: 05:19 | Nebbia | 18 | 18 | 100 | 1014 | 2 | N 0 | |
| Oggi h: 05:02 | Foschia | 17 | 17 | 100 | 1014 | 5 | N 0 | |
| Oggi h: 04:54 | Nebbia | 18 | 18 | 100 | 1014 | 2 | N 5.5 | |
| Oggi h: 03:54 | Nebbia | 19 | 19 | 100 | 1013 | 2 | N 0 | |
| Oggi h: 03:46 | Nebbia | 20 | 20 | 100 | 1013 | 2 | N 0 | |
| Oggi h: 03:35 | Foschia | 21 | 21 | 100 | 1014 | 2 | N 0 | |
| Oggi h: 03:26 | Nebbia | 19 | 19 | 100 | 1014 | 2 | N 0 | |
| Oggi h: 03:21 | Foschia | 19 | 19 | 100 | 1014 | 2 | N 5.5 | |
| Oggi h: 02:54 | Foschia | 20 | 20 | 100 | 1014 | 10 | N 7.4 | |
| Oggi h: 02:08 | Foschia | 21 | 21 | 100 | 1014 | 5 | N 5.5 | |
| Oggi h: 02:06 | Foschia | 21 | 21 | 100 | 1014 | 2 | N 5.5 | |
| Oggi h: 01:56 | Foschia | 21 | 21 | 100 | 1013 | 5 | N 5.5 | |
| Oggi h: 01:54 | Foschia | 21 | 21 | 100 | 1013 | 5 | N 5.5 | |
| Oggi h: 00:54 | Sereno | 22 | 21 | 94 | 1013 | 14 | N 5.5 | |
| Ieri h: 23:54 | Nuvoloso | 22 | 22 | 100 | 1013 | 10 | N 5.5 | |
| Ieri h: 22:54 | Coperto | 22 | 21 | 94 | 1013 | 10 | N 0 | |
| Ieri h: 21:54 | Sereno | 23 | 22 | 94 | 1013 | 10 | N 0 | |
| Ieri h: 20:54 | Sereno | 25 | 22 | 83 | 1012 | 10 | N 0 | |
| Ieri h: 19:54 | Nuvoloso | 27 | 22 | 74 | 1012 | 10 | O/SO 7.4 | |
| Ieri h: 18:54 | Sereno | 28 | 23 | 74 | 1012 | 10 | O/SO 7.4 | |
| Ieri h: 17:54 | Poco Nuvoloso | 30 | 23 | 66 | 1011 | 10 | SO 13 | |
| Ieri h: 16:54 | Sereno | 29 | 23 | 70 | 1011 | 10 | O 7.4 | |
| Ieri h: 15:54 | Poco Nuvoloso | 29 | 23 | 70 | 1011 | 10 | NO 9.3 | |



